Terminal Aerodrome Forecast
Issued by NWS Topeka, KS

Home | Current Version | Previous Version | Text Only | Print | Product List | Glossary Off
Versions: 1 2 3 4 5 6 7 8 9 10 11 12 13 14 15 16 17 18

000
FTUS43 KTOP 211900 AAA
TAFTOP
TAF AMD
KTOP 211902Z 2119/2218 35011G18KT P6SM FEW035 SCT100
      TEMPO 2119/2122 -SHRA BKN035
     FM212300 35006KT P6SM FEW050
     FM221500 07006KT P6SM SKC=

USA.gov is the U.S. government's official web portal to all federal, state and local government web resources and services.